Time;durP1;ratioP1;P1;durP2;ratioP2;P2;SDS_P1;SDS_P2;PMS_P1;PMS_P2;Temp;Humidity;BMP_temperature;BMP_pressure;BME280_temperature;BME280_humidity;BME280_pressure;Samples;Min_cycle;Max_cycle;Signal;HPM_P1;HPM_P2
2023/01/05 00:00:11;;;;;;;0.70;0.40;;;9.10;99.90;;;;;;5076340;28;20449;-79
2023/01/05 00:02:37;;;;;;;0.30;0.20;;;9.10;99.90;;;;;;5076507;28;20445;-79
2023/01/05 00:05:05;;;;;;;0.30;0.20;;;9.10;99.90;;;;;;5076516;28;20470;-79
2023/01/05 00:07:31;;;;;;;0.30;0.27;;;9.20;99.90;;;;;;5076459;28;20456;-78
2023/01/05 00:10:00;;;;;;;0.30;0.27;;;9.20;99.90;;;;;;5076121;28;20814;-78
2023/01/05 00:23:23;;;;;;;0.30;0.20;;;9.20;99.90;;;;;;5075976;28;20488;-79
2023/01/05 00:25:51;;;;;;;0.30;0.30;;;9.20;99.90;;;;;;5076196;28;20795;-79
2023/01/05 00:28:18;;;;;;;0.30;0.20;;;9.20;99.90;;;;;;5075460;28;20456;-79
2023/01/05 00:30:49;;;;;;;0.30;0.20;;;9.30;99.90;;;;;;5075759;28;20967;-79
2023/01/05 00:33:17;;;;;;;0.30;0.20;;;9.30;99.90;;;;;;5076032;28;20438;-78
2023/01/05 00:35:44;;;;;;;0.30;0.30;;;9.30;99.90;;;;;;5075923;28;20466;-78
2023/01/05 00:38:11;;;;;;;0.30;0.20;;;9.30;99.90;;;;;;5075925;28;20441;-78
2023/01/05 00:40:38;;;;;;;0.30;0.20;;;9.30;99.90;;;;;;5075942;28;20452;-79
2023/01/05 00:43:06;;;;;;;0.30;0.20;;;9.20;99.90;;;;;;5075760;28;20469;-79
2023/01/05 00:45:33;;;;;;;0.30;0.20;;;9.20;99.90;;;;;;5075861;28;20480;-79
2023/01/05 00:48:00;;;;;;;0.30;0.20;;;9.20;99.90;;;;;;5075430;28;20790;-79
2023/01/05 00:50:27;;;;;;;0.37;0.30;;;9.20;99.90;;;;;;5075413;28;20941;-78
2023/01/05 00:52:54;;;;;;;0.30;0.20;;;9.20;99.90;;;;;;5075693;28;20445;-79
2023/01/05 00:55:21;;;;;;;0.30;0.30;;;9.20;99.90;;;;;;5075579;28;20469;-79
2023/01/05 00:57:47;;;;;;;0.30;0.20;;;9.30;99.90;;;;;;5075268;28;20445;-79
2023/01/05 01:00:18;;;;;;;1.30;0.30;;;9.30;99.90;;;;;;5075580;28;20434;-79
2023/01/05 01:02:45;;;;;;;0.30;0.20;;;9.30;99.90;;;;;;5075500;28;20452;-79
2023/01/05 01:05:12;;;;;;;0.33;0.27;;;9.30;99.90;;;;;;5075404;28;20488;-79
2023/01/05 01:07:39;;;;;;;0.30;0.20;;;9.30;99.90;;;;;;5075092;28;20936;-78
2023/01/05 01:10:07;;;;;;;0.30;0.20;;;9.30;99.90;;;;;;5075379;28;20453;-78
2023/01/05 01:12:33;;;;;;;0.30;0.20;;;9.20;99.90;;;;;;5075089;28;20456;-78
2023/01/05 01:15:00;;;;;;;0.30;0.30;;;9.30;99.90;;;;;;5075232;28;20461;-78
2023/01/05 01:17:28;;;;;;;0.30;0.20;;;9.30;99.90;;;;;;5075242;28;20456;-78
2023/01/05 01:19:55;;;;;;;0.30;0.20;;;9.30;99.90;;;;;;5075349;28;20450;-79
2023/01/05 01:22:22;;;;;;;0.30;0.20;;;9.30;99.90;;;;;;5074821;28;20803;-79
2023/01/05 01:24:48;;;;;;;0.30;0.20;;;9.40;99.90;;;;;;5074913;28;20853;-79
2023/01/05 01:27:15;;;;;;;0.30;0.30;;;9.40;99.90;;;;;;5074985;28;20453;-79
2023/01/05 01:29:42;;;;;;;0.30;0.20;;;9.40;99.90;;;;;;5074652;28;20450;-79
2023/01/05 01:32:09;;;;;;;0.30;0.20;;;9.40;99.90;;;;;;5074915;28;20453;-79
2023/01/05 01:34:38;;;;;;;0.30;0.30;;;9.40;99.90;;;;;;5074475;28;20461;-79
2023/01/05 01:37:05;;;;;;;0.30;0.30;;;9.40;99.90;;;;;;5074473;28;21024;-78
2023/01/05 01:39:31;;;;;;;0.30;0.20;;;9.30;99.90;;;;;;5073785;28;20445;-78
2023/01/05 01:41:58;;;;;;;0.30;0.30;;;9.30;99.90;;;;;;5074711;28;20449;-79
2023/01/05 01:44:52;;;;;;;0.30;0.30;;;9.40;99.90;;;;;;5074504;28;20485;-79
2023/01/05 01:47:27;;;;;;;0.30;0.20;;;9.40;99.90;;;;;;5074607;28;20441;-79
2023/01/05 01:49:57;;;;;;;0.30;0.20;;;9.40;99.90;;;;;;5074303;28;20901;-79
2023/01/05 01:52:25;;;;;;;0.30;0.20;;;9.40;99.90;;;;;;5074478;28;20972;-79
2023/01/05 01:54:52;;;;;;;0.30;0.20;;;9.30;99.90;;;;;;5074050;28;20852;-79
2023/01/05 01:57:20;;;;;;;0.40;0.20;;;9.40;99.90;;;;;;5074418;28;20515;-79
2023/01/05 01:59:47;;;;;;;0.30;0.20;;;9.40;99.90;;;;;;5074047;28;20450;-79
2023/01/05 02:02:14;;;;;;;0.30;0.20;;;9.40;99.90;;;;;;5074520;28;20450;-79
2023/01/05 02:04:43;;;;;;;0.30;0.30;;;9.40;99.90;;;;;;5074158;28;20481;-79
2023/01/05 02:07:14;;;;;;;0.30;0.30;;;9.40;99.90;;;;;;5074206;28;20468;-79
2023/01/05 02:09:41;;;;;;;0.30;0.20;;;9.30;99.90;;;;;;5074285;28;20429;-79
2023/01/05 02:12:18;;;;;;;0.40;0.30;;;9.30;99.90;;;;;;5074126;28;20461;-79
2023/01/05 02:14:53;;;;;;;0.30;0.20;;;9.30;99.90;;;;;;5073585;28;20477;-79
2023/01/05 02:17:29;;;;;;;0.30;0.20;;;9.40;99.90;;;;;;5074043;28;20443;-79
2023/01/05 02:20:28;;;;;;;0.30;0.20;;;9.40;99.90;;;;;;5074561;28;20442;-78
2023/01/05 02:23:36;;;;;;;0.30;0.20;;;9.40;99.90;;;;;;5073946;28;20429;-78
2023/01/05 02:26:42;;;;;;;0.30;0.20;;;9.40;99.90;;;;;;5074328;28;20797;-78
2023/01/05 02:29:38;;;;;;;0.30;0.20;;;9.40;99.90;;;;;;5073857;28;20425;-78
2023/01/05 02:32:13;;;;;;;0.30;0.30;;;9.40;99.90;;;;;;5073513;28;20936;-79
2023/01/05 02:34:47;;;;;;;0.30;0.20;;;9.40;99.90;;;;;;5073746;28;20464;-78
2023/01/05 02:37:18;;;;;;;0.30;0.30;;;9.40;99.90;;;;;;5073741;28;20430;-78
2023/01/05 02:39:50;;;;;;;0.30;0.20;;;9.40;99.90;;;;;;5073717;28;20427;-79
2023/01/05 02:42:20;;;;;;;0.30;0.20;;;9.50;99.90;;;;;;5073389;28;20944;-79
2023/01/05 02:44:47;;;;;;;0.30;0.20;;;9.50;99.90;;;;;;5073475;28;20854;-79
2023/01/05 02:47:37;;;;;;;0.30;0.20;;;9.50;99.90;;;;;;5073403;28;20441;-79
2023/01/05 02:50:08;;;;;;;0.30;0.20;;;9.40;99.90;;;;;;5073256;28;20433;-79
2023/01/05 02:52:39;;;;;;;0.30;0.20;;;9.50;99.90;;;;;;5073539;28;20433;-79
2023/01/05 02:55:12;;;;;;;0.30;0.20;;;9.50;99.90;;;;;;5073482;28;20458;-79
2023/01/05 02:57:49;;;;;;;0.30;0.20;;;9.50;99.90;;;;;;5073250;28;20441;-78
2023/01/05 03:00:19;;;;;;;0.30;0.30;;;9.60;99.90;;;;;;5073175;28;20909;-79
2023/01/05 03:02:50;;;;;;;0.30;0.20;;;9.60;99.90;;;;;;5073159;28;20437;-79
2023/01/05 03:05:24;;;;;;;0.30;0.30;;;9.60;99.90;;;;;;5073007;28;20492;-79
2023/01/05 03:07:51;;;;;;;0.30;0.20;;;9.60;99.90;;;;;;5073101;28;20440;-79
2023/01/05 03:15:57;;;;;;;0.30;0.20;;;9.80;99.90;;;;;;5073564;28;20404;-79
2023/01/05 03:18:26;;;;;;;0.30;0.20;;;9.70;99.90;;;;;;5073523;28;20441;-79
2023/01/05 03:20:54;;;;;;;0.30;0.20;;;9.70;99.90;;;;;;5073153;28;20449;-79
2023/01/05 03:37:33;;;;;;;0.30;0.20;;;9.90;99.90;;;;;;5073025;28;20409;-79
2023/01/05 03:40:02;;;;;;;0.30;0.20;;;9.90;99.90;;;;;;5072948;28;20434;-79
2023/01/05 03:42:30;;;;;;;0.40;0.30;;;9.90;99.90;;;;;;5073032;28;20526;-79
2023/01/05 03:44:58;;;;;;;0.30;0.20;;;9.90;99.90;;;;;;5072642;28;20500;-79
2023/01/05 03:47:25;;;;;;;0.30;0.20;;;9.90;99.90;;;;;;5072959;28;20458;-79
2023/01/05 03:49:53;;;;;;;0.30;0.20;;;9.90;99.90;;;;;;5072928;28;20532;-79
2023/01/05 03:52:20;;;;;;;0.30;0.20;;;9.90;99.90;;;;;;5072632;28;20453;-79
2023/01/05 03:54:46;;;;;;;0.30;0.20;;;10.00;99.90;;;;;;5072838;28;20461;-79
2023/01/05 03:57:13;;;;;;;0.30;0.20;;;10.00;99.90;;;;;;5072879;28;20461;-79
2023/01/05 03:59:40;;;;;;;0.40;0.30;;;10.10;99.90;;;;;;5072829;28;20450;-79
2023/01/05 04:02:06;;;;;;;0.30;0.20;;;10.10;99.90;;;;;;5073939;28;20454;-79
2023/01/05 04:04:33;;;;;;;0.30;0.20;;;10.00;99.90;;;;;;5076716;28;20492;-79
2023/01/05 04:07:01;;;;;;;0.30;0.20;;;10.10;99.90;;;;;;5076779;28;20453;-79
2023/01/05 04:09:28;;;;;;;0.30;0.20;;;10.10;99.90;;;;;;5076501;28;20452;-79
2023/01/05 04:11:55;;;;;;;0.30;0.20;;;10.00;99.90;;;;;;5076133;28;20452;-79
2023/01/05 04:14:21;;;;;;;0.40;0.30;;;10.00;99.90;;;;;;5075896;28;20488;-79
2023/01/05 04:16:48;;;;;;;0.30;0.30;;;10.00;99.90;;;;;;5076248;28;20430;-79
2023/01/05 04:19:15;;;;;;;0.30;0.20;;;10.10;99.90;;;;;;5076427;28;20460;-79
2023/01/05 04:21:42;;;;;;;0.30;0.30;;;10.20;99.90;;;;;;5076257;28;20460;-79
2023/01/05 04:24:11;;;;;;;0.30;0.20;;;10.10;99.90;;;;;;5076149;28;20511;-79
2023/01/05 04:26:40;;;;;;;0.30;0.20;;;10.10;99.90;;;;;;5076188;28;20456;-78
2023/01/05 04:29:09;;;;;;;0.30;0.20;;;10.10;99.90;;;;;;5076130;28;20460;-79
2023/01/05 04:31:36;;;;;;;0.30;0.20;;;10.10;99.90;;;;;;5075702;28;20458;-78
2023/01/05 04:34:02;;;;;;;0.30;0.20;;;10.10;99.90;;;;;;5075666;28;20461;-79
2023/01/05 04:36:29;;;;;;;0.30;0.20;;;10.00;99.90;;;;;;5076009;28;20445;-79
2023/01/05 04:38:56;;;;;;;0.30;0.20;;;10.00;99.90;;;;;;5075915;28;20956;-79
2023/01/05 04:41:24;;;;;;;0.30;0.23;;;10.10;99.90;;;;;;5075925;28;20469;-79
2023/01/05 04:43:51;;;;;;;0.40;0.20;;;10.10;99.90;;;;;;5075436;28;20469;-79
2023/01/05 04:46:18;;;;;;;0.30;0.20;;;10.10;99.90;;;;;;5076362;28;20450;-79
2023/01/05 04:48:44;;;;;;;0.30;0.20;;;10.10;99.90;;;;;;5076046;28;20454;-79
2023/01/05 04:51:11;;;;;;;0.30;0.20;;;10.10;99.90;;;;;;5075757;28;20449;-79
2023/01/05 04:53:38;;;;;;;0.30;0.20;;;10.10;99.90;;;;;;5075315;28;20979;-79
2023/01/05 04:56:05;;;;;;;0.30;0.20;;;10.00;99.90;;;;;;5075658;28;20450;-79
2023/01/05 04:58:33;;;;;;;0.30;0.20;;;10.00;99.90;;;;;;5075658;28;20812;-79
2023/01/05 05:01:00;;;;;;;0.30;0.20;;;10.00;99.90;;;;;;5075595;28;20445;-79
2023/01/05 05:03:27;;;;;;;0.30;0.20;;;10.00;99.90;;;;;;5075235;28;20797;-79
2023/01/05 05:05:53;;;;;;;0.30;0.20;;;10.10;99.90;;;;;;5075431;28;20477;-79
2023/01/05 05:08:20;;;;;;;0.30;0.20;;;10.10;99.90;;;;;;5075558;28;20456;-79
2023/01/05 05:10:47;;;;;;;0.40;0.30;;;10.10;99.90;;;;;;5075378;28;20445;-79
2023/01/05 05:13:14;;;;;;;0.30;0.20;;;10.10;99.90;;;;;;5074942;28;20481;-79
2023/01/05 05:15:44;;;;;;;0.30;0.20;;;10.00;99.90;;;;;;5074908;28;20470;-79
2023/01/05 05:18:11;;;;;;;0.30;0.20;;;10.00;99.90;;;;;;5075246;28;20441;-79
2023/01/05 05:20:40;;;;;;;0.30;0.20;;;10.00;99.90;;;;;;5075179;28;20456;-79
2023/01/05 05:23:07;;;;;;;0.30;0.30;;;10.00;99.90;;;;;;5075113;28;20450;-79
2023/01/05 05:25:34;;;;;;;0.30;0.20;;;9.90;99.90;;;;;;5075048;28;20858;-79
2023/01/05 05:28:00;;;;;;;0.50;0.30;;;10.00;99.90;;;;;;5074722;28;20458;-79
2023/01/05 05:30:27;;;;;;;0.30;0.20;;;10.00;99.90;;;;;;5075002;28;20445;-79
2023/01/05 05:32:55;;;;;;;0.30;0.20;;;10.00;99.90;;;;;;5074900;28;20441;-79
2023/01/05 05:35:22;;;;;;;0.30;0.30;;;10.00;99.90;;;;;;5074809;28;20465;-79
2023/01/05 05:37:49;;;;;;;0.30;0.20;;;10.00;99.90;;;;;;5075109;28;20468;-79
2023/01/05 05:40:16;;;;;;;0.30;0.20;;;10.00;99.90;;;;;;5074785;28;20442;-79
2023/01/05 05:42:42;;;;;;;0.30;0.20;;;9.90;99.90;;;;;;5074429;28;20457;-79
2023/01/05 05:45:10;;;;;;;0.30;0.20;;;9.90;99.90;;;;;;5074375;28;20485;-79
2023/01/05 05:47:37;;;;;;;0.30;0.20;;;9.90;99.90;;;;;;5075379;28;20453;-79
2023/01/05 05:50:06;;;;;;;0.30;0.20;;;9.90;99.90;;;;;;5074592;28;20446;-79
2023/01/05 05:52:33;;;;;;;0.30;0.20;;;9.90;99.90;;;;;;5074455;28;20453;-79
2023/01/05 05:55:00;;;;;;;0.30;0.20;;;9.90;99.90;;;;;;5074280;28;20472;-79
2023/01/05 05:57:26;;;;;;;0.30;0.20;;;9.90;99.90;;;;;;5074420;28;20492;-79
2023/01/05 05:59:53;;;;;;;0.30;0.20;;;9.90;99.90;;;;;;5074390;28;20449;-79
2023/01/05 06:02:20;;;;;;;0.30;0.20;;;9.80;99.90;;;;;;5074340;28;20449;-79
2023/01/05 06:04:46;;;;;;;0.30;0.20;;;9.80;99.90;;;;;;5073847;28;20488;-79
2023/01/05 06:07:14;;;;;;;0.30;0.20;;;9.80;99.90;;;;;;5074223;28;20449;-79
2023/01/05 06:09:41;;;;;;;0.30;0.20;;;9.80;99.90;;;;;;5074170;28;20441;-79
2023/01/05 06:12:08;;;;;;;0.30;0.20;;;9.80;99.90;;;;;;5074114;28;20458;-79
2023/01/05 06:14:35;;;;;;;0.30;0.20;;;9.80;99.90;;;;;;5073624;28;20484;-78
2023/01/05 06:17:01;;;;;;;0.60;0.30;;;9.80;99.90;;;;;;5073714;28;20941;-79
2023/01/05 06:19:28;;;;;;;0.30;0.20;;;9.80;99.90;;;;;;5074019;28;20453;-79
2023/01/05 06:21:55;;;;;;;0.30;0.20;;;9.90;99.90;;;;;;5073799;28;20792;-79
2023/01/05 06:24:23;;;;;;;0.30;0.20;;;9.90;99.90;;;;;;5073105;28;20473;-79
2023/01/05 06:26:49;;;;;;;0.30;0.20;;;9.90;99.90;;;;;;5073843;28;20461;-79
2023/01/05 06:29:16;;;;;;;0.40;0.20;;;9.90;99.90;;;;;;5073556;28;20942;-79
2023/01/05 06:31:43;;;;;;;0.30;0.20;;;9.90;99.90;;;;;;5073607;28;20456;-79
2023/01/05 06:34:10;;;;;;;0.30;0.20;;;9.90;99.90;;;;;;5073723;28;20469;-79
2023/01/05 06:36:36;;;;;;;0.30;0.20;;;9.90;99.90;;;;;;5073403;28;20932;-79
2023/01/05 06:39:03;;;;;;;0.30;0.20;;;9.90;99.90;;;;;;5073733;28;20456;-78
2023/01/05 06:41:34;;;;;;;0.30;0.20;;;9.90;99.90;;;;;;5073415;28;20452;-79
2023/01/05 06:44:00;;;;;;;0.30;0.20;;;9.90;99.90;;;;;;5073626;28;20457;-79
2023/01/05 06:46:27;;;;;;;0.30;0.30;;;9.90;99.90;;;;;;5073529;28;20492;-79
2023/01/05 06:48:54;;;;;;;0.30;0.20;;;9.90;99.90;;;;;;5073360;28;20947;-79
2023/01/05 06:51:21;;;;;;;0.30;0.20;;;10.00;99.90;;;;;;5073609;28;20452;-79
2023/01/05 06:53:47;;;;;;;0.30;0.20;;;9.90;99.90;;;;;;5073458;28;20469;-78
2023/01/05 06:56:14;;;;;;;0.30;0.30;;;9.90;99.90;;;;;;5073179;28;20446;-79
2023/01/05 06:58:42;;;;;;;0.30;0.20;;;9.90;99.90;;;;;;5073541;28;20449;-78
2023/01/05 07:01:09;;;;;;;0.30;0.20;;;9.90;99.90;;;;;;5073440;28;20445;-78
2023/01/05 07:03:36;;;;;;;0.30;0.20;;;9.80;99.90;;;;;;5073343;28;20464;-78
2023/01/05 07:06:03;;;;;;;0.30;0.20;;;9.80;99.90;;;;;;5074168;28;20476;-78
2023/01/05 07:08:30;;;;;;;0.30;0.30;;;9.70;99.90;;;;;;5073414;28;20453;-78
2023/01/05 07:10:57;;;;;;;0.30;0.20;;;9.70;99.90;;;;;;5073330;28;20460;-78
2023/01/05 07:13:23;;;;;;;0.30;0.20;;;9.70;99.90;;;;;;5073092;28;20480;-78
2023/01/05 07:15:51;;;;;;;0.30;0.20;;;9.60;99.90;;;;;;5072978;28;20941;-78
2023/01/05 07:18:18;;;;;;;0.30;0.20;;;9.60;99.90;;;;;;5072992;28;20449;-78
2023/01/05 07:20:45;;;;;;;0.30;0.20;;;9.60;99.90;;;;;;5073437;28;20449;-78
2023/01/05 07:23:12;;;;;;;0.30;0.20;;;9.60;99.90;;;;;;5072996;28;20802;-78
2023/01/05 07:25:38;;;;;;;0.30;0.20;;;9.50;99.90;;;;;;5073047;28;20481;-78
2023/01/05 07:28:05;;;;;;;0.40;0.30;;;9.50;99.90;;;;;;5073215;28;20430;-78
2023/01/05 07:30:32;;;;;;;0.30;0.30;;;9.60;99.90;;;;;;5073174;28;20445;-78
2023/01/05 07:33:01;;;;;;;0.30;0.30;;;9.60;99.90;;;;;;5073160;28;20449;-78
2023/01/05 07:35:27;;;;;;;0.30;0.30;;;9.50;99.90;;;;;;5072720;28;20818;-78
2023/01/05 07:37:56;;;;;;;0.30;0.20;;;9.60;99.90;;;;;;5075505;28;20441;-78
2023/01/05 07:40:22;;;;;;;0.40;0.30;;;9.50;99.90;;;;;;5076808;28;20848;-78
2023/01/05 07:42:50;;;;;;;0.30;0.20;;;9.50;99.90;;;;;;5077050;28;20829;-78
2023/01/05 07:45:17;;;;;;;0.30;0.20;;;9.50;99.90;;;;;;5077067;28;20485;-78
2023/01/05 07:47:44;;;;;;;0.30;0.27;;;9.50;99.90;;;;;;5076920;28;20445;-78
2023/01/05 07:50:12;;;;;;;0.40;0.30;;;9.50;99.90;;;;;;5076893;28;20449;-78
2023/01/05 07:52:39;;;;;;;0.30;0.20;;;9.40;99.90;;;;;;5076556;28;20447;-78
2023/01/05 07:55:07;;;;;;;0.30;0.30;;;9.40;99.90;;;;;;5076755;28;20465;-78
2023/01/05 07:57:33;;;;;;;0.30;0.30;;;9.40;99.90;;;;;;5076565;28;20961;-78
2023/01/05 08:00:01;;;;;;;0.30;0.20;;;9.40;99.90;;;;;;5076704;28;20452;-78
2023/01/05 08:02:27;;;;;;;0.30;0.30;;;9.50;99.90;;;;;;5076649;28;20453;-78
2023/01/05 08:04:54;;;;;;;0.40;0.30;;;9.50;99.90;;;;;;5076444;28;20470;-78
2023/01/05 08:07:22;;;;;;;0.50;0.30;;;9.60;99.90;;;;;;5076516;28;20449;-78
2023/01/05 08:13:58;;;;;;;0.40;0.30;;;9.60;99.90;;;;;;5076307;28;20396;-78
2023/01/05 08:15:20;;;;;;;0.97;0.27;;;9.60;99.90;;;;;;5075982;28;20499;-78
2023/01/05 08:17:47;;;;;;;0.40;0.30;;;9.60;99.90;;;;;;5076609;28;20441;-78
2023/01/05 08:20:14;;;;;;;0.97;0.40;;;9.60;99.90;;;;;;5076002;28;20968;-78
2023/01/05 08:22:42;;;;;;;0.30;0.30;;;9.70;99.90;;;;;;5076250;28;20553;-78
2023/01/05 08:25:09;;;;;;;0.30;0.20;;;9.70;99.90;;;;;;5075742;28;20818;-78
2023/01/05 08:27:36;;;;;;;0.30;0.30;;;9.80;99.90;;;;;;5076179;28;20452;-78
2023/01/05 08:30:03;;;;;;;0.30;0.30;;;9.80;99.90;;;;;;5076186;28;20449;-78
2023/01/05 08:32:30;;;;;;;0.30;0.20;;;9.80;99.90;;;;;;5075794;28;20461;-78
2023/01/05 08:34:56;;;;;;;1.47;0.40;;;9.80;99.90;;;;;;5075967;28;20472;-78
2023/01/05 08:37:23;;;;;;;0.30;0.30;;;9.90;99.90;;;;;;5075978;28;20441;-78
2023/01/05 08:39:51;;;;;;;0.70;0.30;;;9.90;99.90;;;;;;5075891;28;20438;-78
2023/01/05 08:42:18;;;;;;;0.40;0.30;;;9.90;99.90;;;;;;5075911;28;20457;-78
2023/01/05 08:44:45;;;;;;;0.67;0.37;;;10.00;99.90;;;;;;5075894;28;20470;-78
2023/01/05 08:47:11;;;;;;;0.30;0.30;;;10.00;99.90;;;;;;5075641;28;20477;-78
2023/01/05 08:49:38;;;;;;;0.40;0.30;;;10.00;99.90;;;;;;5075144;28;20448;-78
2023/01/05 08:52:06;;;;;;;2.53;0.30;;;10.00;99.90;;;;;;5075758;28;20465;-78
2023/01/05 08:54:32;;;;;;;0.30;0.20;;;10.10;99.90;;;;;;5075344;28;20505;-78
2023/01/05 08:57:01;;;;;;;0.30;0.20;;;10.00;99.90;;;;;;5075653;28;20453;-78
2023/01/05 08:59:27;;;;;;;0.30;0.20;;;10.00;99.90;;;;;;5075300;28;20948;-78
2023/01/05 09:01:54;;;;;;;0.30;0.30;;;10.00;99.90;;;;;;5075258;28;20452;-78
2023/01/05 09:04:21;;;;;;;0.40;0.30;;;10.10;99.90;;;;;;5075480;28;20485;-78
2023/01/05 09:06:48;;;;;;;0.33;0.33;;;10.20;99.90;;;;;;5075416;28;20473;-78
2023/01/05 09:09:14;;;;;;;0.60;0.60;;;10.20;99.90;;;;;;5075459;28;20906;-78
2023/01/05 09:11:41;;;;;;;0.30;0.30;;;10.30;99.90;;;;;;5075457;28;20449;-78
2023/01/05 09:14:13;;;;;;;0.30;0.30;;;10.30;99.90;;;;;;5074856;28;20481;-78
2023/01/05 09:16:39;;;;;;;0.40;0.40;;;10.30;99.90;;;;;;5075518;28;20436;-78
2023/01/05 09:19:06;;;;;;;0.30;0.20;;;10.30;99.90;;;;;;5074966;28;20983;-78
2023/01/05 09:21:33;;;;;;;0.30;0.30;;;10.30;99.90;;;;;;5074879;28;20458;-78
2023/01/05 09:24:00;;;;;;;0.30;0.30;;;10.30;99.90;;;;;;5074801;28;20465;-78
2023/01/05 09:26:27;;;;;;;0.30;0.30;;;10.30;99.90;;;;;;5075038;28;20473;-79
2023/01/05 09:28:54;;;;;;;0.60;0.40;;;10.30;99.90;;;;;;5074880;28;20452;-79
2023/01/05 09:31:23;;;;;;;0.50;0.50;;;10.30;99.90;;;;;;5074974;28;20458;-78
2023/01/05 09:33:50;;;;;;;0.30;0.30;;;10.40;99.90;;;;;;5074855;28;20496;-80
2023/01/05 09:36:18;;;;;;;0.40;0.33;;;10.40;99.90;;;;;;5075378;28;20457;-78
2023/01/05 09:38:48;;;;;;;2.10;0.30;;;10.40;99.90;;;;;;5074555;28;20441;-78
2023/01/05 09:41:21;;;;;;;0.30;0.30;;;10.40;99.90;;;;;;5074840;28;20421;-78
2023/01/05 09:43:52;;;;;;;2.10;0.40;;;10.50;99.90;;;;;;5074717;28;20473;-78
2023/01/05 09:46:21;;;;;;;0.60;0.30;;;10.50;99.90;;;;;;5074694;28;20469;-78
2023/01/05 09:48:53;;;;;;;1.63;0.47;;;10.60;99.90;;;;;;5074343;28;20964;-78
2023/01/05 09:51:20;;;;;;;0.40;0.40;;;10.60;99.90;;;;;;5074601;28;20495;-78
2023/01/05 09:53:46;;;;;;;1.23;0.60;;;10.70;99.90;;;;;;5074485;28;20466;-78
2023/01/05 09:56:24;;;;;;;0.77;0.30;;;10.60;99.90;;;;;;5074497;28;20441;-78
2023/01/05 09:58:52;;;;;;;2.73;0.40;;;10.70;99.90;;;;;;5074308;28;20789;-78
2023/01/05 10:01:20;;;;;;;1.33;1.07;;;10.80;99.90;;;;;;5073729;28;20446;-78
2023/01/05 10:03:56;;;;;;;0.30;0.30;;;11.00;99.90;;;;;;5074279;28;20466;-78
2023/01/05 10:06:26;;;;;;;0.30;0.30;;;11.20;99.90;;;;;;5074305;28;20536;-78
2023/01/05 10:08:54;;;;;;;0.40;0.40;;;11.40;99.90;;;;;;5074337;28;20426;-78
2023/01/05 10:14:16;;;;;;;0.37;0.30;;;11.40;99.90;;;;;;5073734;28;20519;-78
2023/01/05 10:16:45;;;;;;;2.40;0.33;;;11.30;99.90;;;;;;5073817;28;20426;-78
2023/01/05 10:19:16;;;;;;;0.30;0.20;;;11.30;99.90;;;;;;5073877;28;20454;-78
2023/01/05 10:21:54;;;;;;;0.40;0.40;;;11.40;99.90;;;;;;5074065;28;20440;-78
2023/01/05 10:24:32;;;;;;;0.60;0.30;;;11.40;99.90;;;;;;5073875;28;20469;-78
2023/01/05 10:27:05;;;;;;;0.97;0.77;;;11.40;99.90;;;;;;5073883;28;20560;-78
2023/01/05 10:29:38;;;;;;;0.30;0.20;;;11.50;99.90;;;;;;5073958;28;20429;-78
2023/01/05 10:32:15;;;;;;;1.00;0.30;;;11.60;99.90;;;;;;5073618;28;20928;-78
2023/01/05 10:34:58;;;;;;;0.30;0.30;;;11.70;99.90;;;;;;5073760;28;20465;-78
2023/01/05 10:37:53;;;;;;;0.40;0.30;;;11.70;99.90;;;;;;5073433;28;20917;-78
2023/01/05 10:40:30;;;;;;;0.40;0.30;;;11.80;99.90;;;;;;5073453;28;20444;-78
2023/01/05 10:43:20;;;;;;;0.30;0.30;;;11.80;99.90;;;;;;5073753;28;20524;-78
2023/01/05 10:45:47;;;;;;;0.33;0.30;;;11.90;99.90;;;;;;5074356;28;20488;-78
2023/01/05 10:48:16;;;;;;;0.40;0.30;;;12.10;99.90;;;;;;5073324;28;20462;-78
2023/01/05 10:50:45;;;;;;;0.37;0.30;;;12.30;99.90;;;;;;5073616;28;20537;-78
2023/01/05 10:53:16;;;;;;;0.37;0.30;;;12.30;99.90;;;;;;5073548;28;20456;-78
2023/01/05 10:55:50;;;;;;;0.83;0.50;;;12.40;99.90;;;;;;5073708;28;20461;-78
2023/01/05 10:58:29;;;;;;;0.40;0.30;;;12.40;99.90;;;;;;5073553;28;20801;-78
2023/01/05 11:00:58;;;;;;;0.40;0.30;;;12.50;99.90;;;;;;5073185;28;20940;-78
2023/01/05 11:03:33;;;;;;;0.50;0.40;;;12.40;99.90;;;;;;5073102;28;20445;-78
2023/01/05 11:06:01;;;;;;;0.40;0.30;;;12.60;99.90;;;;;;5073597;28;20865;-78
2023/01/05 11:08:30;;;;;;;3.00;0.30;;;12.50;99.90;;;;;;5073321;28;20465;-78
2023/01/05 11:10:58;;;;;;;0.70;0.70;;;12.40;99.90;;;;;;5072898;28;20972;-79
2023/01/05 11:13:30;;;;;;;1.70;0.43;;;12.30;99.90;;;;;;5073077;28;21040;-79
2023/01/05 11:16:02;;;;;;;0.30;0.30;;;12.20;99.90;;;;;;5073357;28;20437;-79
2023/01/05 11:18:34;;;;;;;1.07;0.40;;;12.00;99.90;;;;;;5073354;28;20531;-79
2023/01/05 11:21:14;;;;;;;1.90;0.40;;;12.00;99.90;;;;;;5073326;28;20483;-79
2023/01/05 11:23:43;;;;;;;2.33;0.33;;;11.90;99.90;;;;;;5073199;28;20495;-79
2023/01/05 11:26:32;;;;;;;0.40;0.37;;;11.80;99.90;;;;;;5073115;28;20472;-79
2023/01/05 11:29:12;;;;;;;0.50;0.50;;;11.80;99.90;;;;;;5072926;28;20437;-79
2023/01/05 11:31:44;;;;;;;0.30;0.30;;;11.70;99.90;;;;;;5073208;28;20434;-79
2023/01/05 11:34:26;;;;;;;4.63;0.30;;;11.70;99.90;;;;;;5073133;28;20465;-78
2023/01/05 11:36:56;;;;;;;0.30;0.30;;;11.60;99.90;;;;;;5073169;28;20433;-78
2023/01/05 11:39:29;;;;;;;0.60;0.50;;;11.50;99.90;;;;;;5073160;28;20441;-78
2023/01/05 11:42:17;;;;;;;0.30;0.30;;;11.50;99.90;;;;;;5073088;28;20441;-78
2023/01/05 11:44:48;;;;;;;0.77;0.77;;;11.40;99.90;;;;;;5072930;28;20473;-79
2023/01/05 11:47:23;;;;;;;0.30;0.30;;;11.60;99.90;;;;;;5072951;28;20470;-82
2023/01/05 11:49:58;;;;;;;3.60;1.90;;;11.50;99.90;;;;;;5072926;28;20917;-78
2023/01/05 11:52:32;;;;;;;0.50;0.47;;;11.50;99.90;;;;;;5073035;28;20440;-88
2023/01/05 11:54:59;;;;;;;0.80;0.40;;;11.50;99.90;;;;;;5073033;28;20470;-78
2023/01/05 11:57:26;;;;;;;0.30;0.30;;;11.60;99.90;;;;;;5072933;28;20453;-78
2023/01/05 11:59:54;;;;;;;0.30;0.27;;;11.60;99.90;;;;;;5072547;28;20804;-78
2023/01/05 12:02:55;;;;;;;0.83;0.30;;;11.60;99.90;;;;;;5072602;28;20937;-78
2023/01/05 12:05:26;;;;;;;0.80;0.80;;;11.70;99.90;;;;;;5072836;28;20457;-78
2023/01/05 12:07:59;;;;;;;0.40;0.30;;;11.70;99.90;;;;;;5072735;28;20504;-79
2023/01/05 12:10:39;;;;;;;2.10;0.30;;;11.70;99.90;;;;;;5072597;28;20894;-79
2023/01/05 12:13:19;;;;;;;0.30;0.30;;;11.70;99.90;;;;;;5072634;28;20576;-79
2023/01/05 12:16:01;;;;;;;0.40;0.30;;;11.80;99.90;;;;;;5072983;28;20538;-79
2023/01/05 12:18:53;;;;;;;5.17;0.43;;;11.80;99.90;;;;;;5072773;28;20439;-79
2023/01/05 12:21:23;;;;;;;6.80;0.73;;;11.80;99.90;;;;;;5072546;28;20449;-79
2023/01/05 12:24:08;;;;;;;0.40;0.30;;;11.90;99.90;;;;;;5074353;28;20465;-79
2023/01/05 12:26:44;;;;;;;0.30;0.30;;;11.80;99.90;;;;;;5076475;28;20476;-79
2023/01/05 12:29:24;;;;;;;2.50;0.30;;;11.80;99.90;;;;;;5076188;28;20437;-79
2023/01/05 12:32:06;;;;;;;0.40;0.30;;;11.80;99.90;;;;;;5076299;28;20433;-79
2023/01/05 12:35:05;;;;;;;1.47;0.43;;;11.70;99.90;;;;;;5076123;28;20465;-79
2023/01/05 12:37:41;;;;;;;0.40;0.30;;;11.70;99.90;;;;;;5076053;28;20442;-79
2023/01/05 12:40:38;;;;;;;0.60;0.57;;;11.60;99.90;;;;;;5076390;28;20410;-79
2023/01/05 12:43:09;;;;;;;0.30;0.30;;;11.60;99.90;;;;;;5062614;28;20450;-79
2023/01/05 12:45:59;;;;;;;2.20;2.00;;;11.50;99.90;;;;;;5075882;28;20556;-79
2023/01/05 12:48:31;;;;;;;1.07;0.30;;;11.40;99.90;;;;;;5075633;28;20484;-79
2023/01/05 12:51:08;;;;;;;0.87;0.40;;;11.40;99.90;;;;;;5075907;28;20410;-79
2023/01/05 12:53:50;;;;;;;1.03;0.53;;;11.40;99.90;;;;;;5076008;28;20441;-79
2023/01/05 12:56:25;;;;;;;3.27;0.47;;;11.40;99.90;;;;;;5075460;28;20437;-79
2023/01/05 12:59:04;;;;;;;0.70;0.40;;;11.40;99.90;;;;;;5075426;28;20487;-79
2023/01/05 13:01:35;;;;;;;0.67;0.40;;;11.30;99.90;;;;;;5075707;28;20437;-79
2023/01/05 13:04:05;;;;;;;7.70;0.63;;;11.40;99.90;;;;;;5075696;28;20465;-79
2023/01/05 13:06:38;;;;;;;11.43;0.50;;;11.40;99.90;;;;;;5075431;28;20434;-79
2023/01/05 13:09:13;;;;;;;0.50;0.50;;;11.40;99.90;;;;;;5075200;28;20438;-79
2023/01/05 13:11:46;;;;;;;5.10;0.40;;;11.40;99.90;;;;;;5075208;28;20901;-79
2023/01/05 13:14:18;;;;;;;0.80;0.60;;;11.30;99.90;;;;;;5074863;28;21019;-79
2023/01/05 13:16:52;;;;;;;0.43;0.40;;;11.40;99.90;;;;;;5075627;28;20509;-79
2023/01/05 13:19:24;;;;;;;0.93;0.40;;;11.40;99.90;;;;;;5075143;28;20916;-79
2023/01/05 13:21:53;;;;;;;2.63;1.80;;;11.40;99.90;;;;;;5075013;28;20785;-79
2023/01/05 13:24:27;;;;;;;0.30;0.20;;;11.40;99.90;;;;;;5075149;28;20462;-79
2023/01/05 13:26:57;;;;;;;0.50;0.50;;;11.40;99.90;;;;;;5075155;28;20464;-79
2023/01/05 13:29:26;;;;;;;0.30;0.30;;;11.40;99.90;;;;;;5075342;28;20446;-79
2023/01/05 13:32:12;;;;;;;0.97;0.33;;;11.40;99.90;;;;;;5075047;28;20445;-79
2023/01/05 13:34:52;;;;;;;1.57;0.33;;;11.40;99.90;;;;;;5074878;28;20561;-79
2023/01/05 13:37:39;;;;;;;0.47;0.40;;;11.30;99.90;;;;;;5074946;28;20441;-79
2023/01/05 13:40:22;;;;;;;0.30;0.30;;;11.30;99.90;;;;;;5074914;28;20438;-78
2023/01/05 13:43:17;;;;;;;0.40;0.30;;;11.20;99.90;;;;;;5074829;28;20438;-79
2023/01/05 13:46:14;;;;;;;0.50;0.50;;;11.20;99.90;;;;;;5048235;28;20461;-79